Time;durP1;ratioP1;P1;durP2;ratioP2;P2;SDS_P1;SDS_P2;PMS_P1;PMS_P2;Temp;Humidity;BMP_temperature;BMP_pressure;BME280_temperature;BME280_humidity;BME280_pressure;Samples;Min_cycle;Max_cycle;Signal;HPM_P1;HPM_P2
2022/05/20 00:00:44;;;;;;;25.70;19.00;;;13.40;99.90;;;;;;5074169;28;20078;-74
2022/05/20 00:03:10;;;;;;;31.25;21.65;;;13.30;99.90;;;;;;5073795;28;20427;-74
2022/05/20 00:05:36;;;;;;;28.63;21.23;;;13.30;99.90;;;;;;5074399;28;20388;-74
2022/05/20 00:08:03;;;;;;;26.80;19.23;;;13.30;99.90;;;;;;5073198;28;20020;-74
2022/05/20 00:10:29;;;;;;;21.95;19.63;;;13.30;99.90;;;;;;5074714;28;20024;-74
2022/05/20 00:12:54;;;;;;;23.25;19.15;;;13.30;99.90;;;;;;5074018;28;20055;-73
2022/05/20 00:15:24;;;;;;;24.90;20.05;;;13.20;99.90;;;;;;5073455;28;20500;-73
2022/05/20 00:17:50;;;;;;;25.27;20.95;;;13.20;99.90;;;;;;5073940;28;20063;-74
2022/05/20 00:20:18;;;;;;;28.23;20.55;;;13.20;99.90;;;;;;5073996;28;20103;-74
2022/05/20 00:22:44;;;;;;;25.92;20.95;;;13.20;99.90;;;;;;5073385;28;20564;-73
2022/05/20 00:27:56;;;;;;;22.85;20.45;;;13.20;99.90;;;;;;5073462;28;20070;-74
2022/05/20 00:30:21;;;;;;;25.60;21.15;;;13.10;99.90;;;;;;5073732;28;20381;-72
2022/05/20 00:32:47;;;;;;;23.02;20.30;;;13.10;99.90;;;;;;5073761;28;20039;-74
2022/05/20 00:35:14;;;;;;;23.35;20.40;;;13.10;99.90;;;;;;5073601;28;20048;-73
2022/05/20 00:37:40;;;;;;;25.25;21.90;;;13.10;99.90;;;;;;5073598;28;20090;-73
2022/05/20 00:40:08;;;;;;;25.08;21.73;;;13.00;99.90;;;;;;5073502;28;20046;-73
2022/05/20 00:42:34;;;;;;;28.17;22.27;;;13.10;99.90;;;;;;5073123;28;20028;-73
2022/05/20 00:45:00;;;;;;;26.70;21.50;;;13.10;99.90;;;;;;5073214;28;20120;-74
2022/05/20 00:47:25;;;;;;;29.90;22.63;;;13.10;99.90;;;;;;5077281;28;20107;-73
2022/05/20 00:49:55;;;;;;;27.70;22.23;;;13.10;99.90;;;;;;5092285;28;20028;-73
2022/05/20 00:52:23;;;;;;;25.27;20.98;;;13.10;99.90;;;;;;5093663;28;20028;-74
2022/05/20 00:54:58;;;;;;;25.45;20.13;;;13.10;99.90;;;;;;5093230;28;20028;-75
2022/05/20 00:57:29;;;;;;;29.40;22.15;;;13.00;99.90;;;;;;5092562;28;20048;-74
2022/05/20 01:00:11;;;;;;;22.75;19.55;;;13.00;99.90;;;;;;5093205;28;20024;-75
2022/05/20 01:02:38;;;;;;;22.10;19.83;;;13.10;99.90;;;;;;5093404;28;20495;-73
2022/05/20 01:05:14;;;;;;;26.50;20.45;;;13.00;99.90;;;;;;5092567;28;20036;-73
2022/05/20 01:07:40;;;;;;;24.80;21.02;;;13.00;99.90;;;;;;5093470;28;20059;-74
2022/05/20 01:10:06;;;;;;;28.85;20.80;;;12.90;99.90;;;;;;5092546;28;20103;-73
2022/05/20 01:12:32;;;;;;;29.48;20.42;;;12.90;99.90;;;;;;5092934;28;20603;-74
2022/05/20 01:14:58;;;;;;;23.20;19.65;;;12.90;99.90;;;;;;5092968;28;20047;-74
2022/05/20 01:17:24;;;;;;;23.55;19.88;;;12.90;99.90;;;;;;5092828;28;20116;-72
2022/05/20 01:19:55;;;;;;;26.67;20.55;;;12.90;99.90;;;;;;5092833;28;20380;-73
2022/05/20 01:22:39;;;;;;;26.55;21.02;;;12.90;99.90;;;;;;5093459;28;20111;-74
2022/05/20 01:25:06;;;;;;;21.98;19.60;;;12.90;99.90;;;;;;5092592;28;20161;-75
2022/05/20 01:27:32;;;;;;;26.20;20.23;;;12.90;99.90;;;;;;5098347;28;20028;-75
2022/05/20 01:29:57;;;;;;;21.95;19.73;;;12.80;99.90;;;;;;5093497;28;20043;-73
2022/05/20 01:32:23;;;;;;;26.45;19.63;;;12.80;99.90;;;;;;5092147;28;20040;-72
2022/05/20 01:34:48;;;;;;;26.52;21.77;;;12.80;99.90;;;;;;5092626;28;20074;-74
2022/05/20 01:37:14;;;;;;;28.38;22.48;;;12.80;99.90;;;;;;5092780;28;20031;-74
2022/05/20 01:39:42;;;;;;;27.20;22.05;;;12.80;99.90;;;;;;5092156;28;20032;-74
2022/05/20 01:42:37;;;;;;;31.08;22.67;;;12.80;99.90;;;;;;5092777;28;20054;-74
2022/05/20 01:45:32;;;;;;;24.65;21.83;;;12.80;99.90;;;;;;5092491;28;20395;-74
2022/05/20 01:48:09;;;;;;;27.02;22.52;;;12.70;99.90;;;;;;5065573;28;20036;-73
2022/05/20 01:50:50;;;;;;;24.58;20.25;;;12.70;99.90;;;;;;5092722;28;20426;-73
2022/05/20 01:53:40;;;;;;;25.15;20.88;;;12.70;99.90;;;;;;5092060;28;20039;-74
2022/05/20 01:56:12;;;;;;;25.30;21.57;;;12.60;99.90;;;;;;5092339;28;20498;-74
2022/05/20 01:58:55;;;;;;;28.55;22.23;;;12.70;99.90;;;;;;5092584;28;20285;-74
2022/05/20 02:01:26;;;;;;;26.58;21.27;;;12.60;99.90;;;;;;5091788;28;20391;-74
2022/05/20 02:03:57;;;;;;;23.25;20.40;;;12.60;99.90;;;;;;5092067;28;20479;-73
2022/05/20 02:06:29;;;;;;;24.35;20.70;;;12.60;99.90;;;;;;5091881;28;20480;-73
2022/05/20 02:08:59;;;;;;;29.40;23.52;;;12.50;99.90;;;;;;5091799;28;20484;-73
2022/05/20 02:11:37;;;;;;;26.33;22.20;;;12.50;99.90;;;;;;5092525;28;20438;-73
2022/05/20 02:14:13;;;;;;;27.00;22.45;;;12.50;99.90;;;;;;5091752;28;20062;-73
2022/05/20 02:16:44;;;;;;;26.80;21.92;;;12.50;99.90;;;;;;5092039;28;20504;-73
2022/05/20 02:19:38;;;;;;;25.60;21.17;;;12.50;99.90;;;;;;5091667;28;20109;-74
2022/05/20 02:22:09;;;;;;;27.73;22.52;;;12.40;99.90;;;;;;5090807;28;20066;-73
2022/05/20 02:24:38;;;;;;;29.10;22.52;;;12.40;99.90;;;;;;5092408;28;20111;-73
2022/05/20 02:27:07;;;;;;;27.10;22.15;;;12.40;99.90;;;;;;5091852;28;20063;-74
2022/05/20 02:29:41;;;;;;;28.30;23.70;;;12.40;99.90;;;;;;5091933;28;20568;-73
2022/05/20 02:32:44;;;;;;;27.38;22.63;;;12.40;99.90;;;;;;5092164;28;20107;-73
2022/05/20 02:35:09;;;;;;;28.35;23.33;;;12.40;99.90;;;;;;5081134;28;20036;-74
2022/05/20 02:37:37;;;;;;;30.50;24.98;;;12.40;99.90;;;;;;5091849;28;20422;-73
2022/05/20 02:40:04;;;;;;;29.38;24.23;;;12.40;99.90;;;;;;5091796;28;20024;-74
2022/05/20 02:42:30;;;;;;;33.10;26.05;;;12.40;99.90;;;;;;5091473;28;20384;-74
2022/05/20 02:44:59;;;;;;;36.20;27.83;;;12.40;99.90;;;;;;5091630;28;20024;-74
2022/05/20 02:47:26;;;;;;;37.67;27.83;;;12.50;99.90;;;;;;5092118;28;20032;-74
2022/05/20 02:49:51;;;;;;;33.13;26.77;;;12.40;99.90;;;;;;5091068;28;20480;-74
2022/05/20 02:52:17;;;;;;;30.05;26.02;;;12.40;99.90;;;;;;5092293;28;20031;-74
2022/05/20 02:54:42;;;;;;;28.55;23.75;;;12.40;99.90;;;;;;5091879;28;20028;-74
2022/05/20 02:57:08;;;;;;;27.05;22.98;;;12.40;99.90;;;;;;5090927;28;20111;-74
2022/05/20 03:05:02;;;;;;;23.45;21.02;;;12.30;99.90;;;;;;5091323;28;20059;-74
2022/05/20 03:07:28;;;;;;;22.42;19.95;;;12.30;99.90;;;;;;5091976;28;20040;-74
2022/05/20 03:09:53;;;;;;;25.58;21.58;;;12.30;99.90;;;;;;5091185;28;20419;-73
2022/05/20 03:12:19;;;;;;;24.50;21.95;;;12.20;99.90;;;;;;5091609;28;20400;-74
2022/05/20 03:14:45;;;;;;;25.52;22.48;;;12.20;99.90;;;;;;5091799;28;20396;-73
2022/05/20 03:17:11;;;;;;;23.98;21.52;;;12.20;99.90;;;;;;5090883;28;20020;-74
2022/05/20 03:19:37;;;;;;;22.40;20.02;;;12.10;99.90;;;;;;5091325;28;20138;-74
2022/05/20 03:22:04;;;;;;;22.38;20.10;;;12.20;99.90;;;;;;5091287;28;20020;-74
2022/05/20 03:24:30;;;;;;;26.10;20.98;;;12.10;99.90;;;;;;5090949;28;20028;-74
2022/05/20 03:26:56;;;;;;;25.48;21.42;;;12.10;99.90;;;;;;5091274;28;20552;-74
2022/05/20 03:29:22;;;;;;;26.98;21.67;;;12.10;99.90;;;;;;5091731;28;20099;-73
2022/05/20 03:31:48;;;;;;;23.27;20.90;;;12.10;99.90;;;;;;5090503;28;20027;-73
2022/05/20 03:34:14;;;;;;;29.45;20.92;;;12.10;99.90;;;;;;5093567;28;20390;-74
2022/05/20 03:36:41;;;;;;;26.77;22.85;;;12.00;99.90;;;;;;5095282;28;20020;-73
2022/05/20 03:39:09;;;;;;;26.08;22.00;;;12.10;99.90;;;;;;5094298;28;20472;-74
2022/05/20 03:41:35;;;;;;;26.30;23.00;;;12.10;99.90;;;;;;5094958;28;20024;-74
2022/05/20 03:44:00;;;;;;;24.90;22.20;;;12.10;99.90;;;;;;5094617;28;20047;-74
2022/05/20 03:46:26;;;;;;;26.85;22.88;;;12.10;99.90;;;;;;5094481;28;20092;-75
2022/05/20 03:48:52;;;;;;;26.02;23.30;;;12.10;99.90;;;;;;5094493;28;20028;-75
2022/05/20 03:51:18;;;;;;;26.77;22.67;;;12.00;99.90;;;;;;5094812;28;20035;-75
2022/05/20 03:53:44;;;;;;;28.98;22.95;;;12.10;99.90;;;;;;5094403;28;20026;-75
2022/05/20 03:56:10;;;;;;;31.30;25.73;;;12.10;99.90;;;;;;5094409;28;20421;-74
2022/05/20 03:58:36;;;;;;;34.80;29.08;;;12.10;99.90;;;;;;5094618;28;20580;-75
2022/05/20 04:03:47;;;;;;;38.40;29.70;;;12.10;99.90;;;;;;5094946;28;20097;-76
2022/05/20 04:06:13;;;;;;;41.00;31.50;;;12.20;99.90;;;;;;5094437;28;20032;-76
2022/05/20 04:08:39;;;;;;;44.65;31.80;;;12.20;99.90;;;;;;5094825;28;20028;-75
2022/05/20 04:11:11;;;;;;;42.65;30.80;;;12.20;99.90;;;;;;5094199;28;20035;-74
2022/05/20 04:13:41;;;;;;;43.10;32.13;;;12.20;99.90;;;;;;5093705;28;20028;-75
2022/05/20 04:16:08;;;;;;;45.13;34.38;;;12.30;99.90;;;;;;5094082;28;20024;-74
2022/05/20 04:18:34;;;;;;;49.65;35.10;;;12.30;99.90;;;;;;5094352;28;20043;-75
2022/05/20 04:21:00;;;;;;;44.40;34.33;;;12.40;99.90;;;;;;5093602;28;20051;-75
2022/05/20 04:23:26;;;;;;;52.47;36.45;;;12.40;99.90;;;;;;5096793;28;20468;-75
2022/05/20 04:25:52;;;;;;;50.15;35.00;;;12.50;99.90;;;;;;5097584;28;20020;-75
2022/05/20 04:28:17;;;;;;;46.53;33.95;;;12.50;99.90;;;;;;5094691;28;20056;-75
2022/05/20 04:30:43;;;;;;;41.45;30.70;;;12.60;99.90;;;;;;5093934;28;20071;-75
2022/05/20 04:33:09;;;;;;;36.83;29.45;;;12.60;99.90;;;;;;5093958;28;20081;-75
2022/05/20 04:35:35;;;;;;;41.88;30.80;;;12.60;99.90;;;;;;5093419;28;20412;-74
2022/05/20 04:38:00;;;;;;;35.60;28.90;;;12.60;99.90;;;;;;5093604;28;20074;-75
2022/05/20 04:40:26;;;;;;;45.13;29.77;;;12.70;99.90;;;;;;5093723;28;20043;-74
2022/05/20 04:46:56;;;;;;;37.05;27.65;;;12.70;99.90;;;;;;5093351;28;20046;-75
2022/05/20 04:48:33;;;;;;;42.33;30.38;;;12.60;99.90;;;;;;5093000;28;20051;-75
2022/05/20 04:50:59;;;;;;;43.17;32.05;;;12.80;99.90;;;;;;5093124;28;20107;-75
2022/05/20 04:56:09;;;;;;;40.78;33.28;;;12.90;99.90;;;;;;5092523;28;20030;-74
2022/05/20 04:58:35;;;;;;;41.78;33.15;;;13.00;99.90;;;;;;5093584;28;20039;-75
2022/05/20 05:01:01;;;;;;;48.08;34.92;;;13.00;99.90;;;;;;5093895;28;20058;-75
2022/05/20 05:03:26;;;;;;;45.35;33.65;;;13.10;99.90;;;;;;5092836;28;20032;-75
2022/05/20 05:05:52;;;;;;;59.83;37.00;;;13.10;99.90;;;;;;5093073;28;20062;-75
2022/05/20 05:08:18;;;;;;;50.95;36.30;;;13.20;99.90;;;;;;5093420;28;20023;-75
2022/05/20 05:10:44;;;;;;;47.05;36.55;;;13.20;99.90;;;;;;5092581;28;20081;-74
2022/05/20 05:13:12;;;;;;;47.38;36.47;;;13.30;99.90;;;;;;5093099;28;20024;-75
2022/05/20 05:15:38;;;;;;;49.35;38.28;;;13.40;99.90;;;;;;5093213;28;20036;-76
2022/05/20 05:18:12;;;;;;;50.85;39.40;;;13.40;99.90;;;;;;5092404;28;20046;-74
2022/05/20 05:20:46;;;;;;;51.45;38.10;;;13.50;99.90;;;;;;5093322;28;20088;-74
2022/05/20 05:23:12;;;;;;;55.78;39.55;;;13.60;99.90;;;;;;5092480;28;20024;-75
2022/05/20 05:25:39;;;;;;;62.90;42.17;;;13.60;99.90;;;;;;5092873;28;20031;-76
2022/05/20 05:28:05;;;;;;;53.35;40.25;;;13.70;99.90;;;;;;5092739;28;20078;-74
2022/05/20 05:30:31;;;;;;;54.60;39.50;;;13.80;99.90;;;;;;5090017;28;20425;-75
2022/05/20 05:32:57;;;;;;;51.85;38.05;;;13.80;99.90;;;;;;5090517;28;20024;-75
2022/05/20 05:35:27;;;;;;;53.80;39.65;;;13.90;99.90;;;;;;5090260;28;20107;-74
2022/05/20 05:37:53;;;;;;;50.88;37.45;;;14.00;99.90;;;;;;5089536;28;20028;-75
2022/05/20 05:40:22;;;;;;;62.55;43.78;;;14.00;99.90;;;;;;5090407;28;20112;-75
2022/05/20 05:42:48;;;;;;;55.35;39.80;;;14.00;99.90;;;;;;5091062;28;20028;-75
2022/05/20 05:45:16;;;;;;;58.33;39.72;;;14.10;99.90;;;;;;5089553;28;20035;-76
2022/05/20 05:47:41;;;;;;;60.28;42.53;;;14.10;99.90;;;;;;5090533;28;20026;-76
2022/05/20 05:50:08;;;;;;;53.45;40.13;;;14.20;99.90;;;;;;5091098;28;20540;-75
2022/05/20 05:52:34;;;;;;;52.85;39.75;;;14.20;99.90;;;;;;5090630;28;20995;-76
2022/05/20 05:55:03;;;;;;;45.00;35.25;;;14.20;99.90;;;;;;5090908;28;20024;-75
2022/05/20 05:57:29;;;;;;;51.10;36.08;;;14.30;99.90;;;;;;5089825;28;20036;-76
2022/05/20 05:59:55;;;;;;;46.33;35.67;;;14.40;99.90;;;;;;5089960;28;20078;-76
2022/05/20 06:02:21;;;;;;;46.13;34.35;;;14.50;99.90;;;;;;5091168;28;20031;-75
2022/05/20 06:04:47;;;;;;;46.20;33.97;;;14.70;99.90;;;;;;5090986;28;20020;-76
2022/05/20 06:07:14;;;;;;;42.53;31.10;;;14.00;99.90;;;;;;5090298;28;20483;-75
2022/05/20 06:09:40;;;;;;;38.20;30.55;;;15.00;99.90;;;;;;5092317;28;20036;-75
2022/05/20 06:12:06;;;;;;;34.25;29.38;;;15.10;99.90;;;;;;5093088;28;20042;-74
2022/05/20 06:14:32;;;;;;;39.67;30.00;;;15.20;99.90;;;;;;5096704;28;20031;-76
2022/05/20 06:16:57;;;;;;;42.03;30.40;;;15.20;99.90;;;;;;5093138;28;20016;-75
2022/05/20 06:19:23;;;;;;;37.03;29.15;;;15.30;99.90;;;;;;5091784;28;20081;-75
2022/05/20 06:21:49;;;;;;;35.58;28.13;;;15.30;99.90;;;;;;5090651;28;20066;-75
2022/05/20 06:24:14;;;;;;;37.55;28.52;;;15.30;99.90;;;;;;5091498;28;20024;-75
2022/05/20 06:26:41;;;;;;;36.75;29.45;;;15.40;99.90;;;;;;5091484;28;20020;-75
2022/05/20 06:29:07;;;;;;;38.13;30.15;;;15.40;99.90;;;;;;5090935;28;20436;-75
2022/05/20 06:31:33;;;;;;;39.35;28.63;;;15.50;99.90;;;;;;5091707;28;20111;-75
2022/05/20 06:33:59;;;;;;;36.45;27.50;;;15.60;99.90;;;;;;5090794;28;20012;-75
2022/05/20 06:41:54;;;;;;;33.58;26.33;;;15.90;99.90;;;;;;5090734;28;20419;-73
2022/05/20 06:44:20;;;;;;;31.25;23.40;;;16.00;99.90;;;;;;5091202;28;20024;-72
2022/05/20 06:46:46;;;;;;;29.48;22.33;;;16.10;99.90;;;;;;5090753;28;20020;-73
2022/05/20 06:49:12;;;;;;;29.98;21.10;;;16.30;99.90;;;;;;5089752;28;20017;-72
2022/05/20 06:51:38;;;;;;;27.02;21.02;;;16.30;99.90;;;;;;5090713;28;20476;-73
2022/05/20 06:54:06;;;;;;;26.70;20.38;;;16.40;99.90;;;;;;5090406;28;20028;-73
2022/05/20 06:56:32;;;;;;;28.98;18.88;;;16.50;99.90;;;;;;5089936;28;20123;-72
2022/05/20 06:59:00;;;;;;;27.90;19.08;;;16.60;99.90;;;;;;5091017;28;20119;-73
2022/05/20 07:01:26;;;;;;;24.02;19.30;;;16.60;99.90;;;;;;5092012;28;20069;-73
2022/05/20 07:03:53;;;;;;;23.35;18.40;;;16.50;99.90;;;;;;5089332;28;20031;-72
2022/05/20 07:06:19;;;;;;;23.02;16.50;;;16.40;99.90;;;;;;5091471;28;20040;-74
2022/05/20 07:08:48;;;;;;;22.00;17.52;;;16.30;99.90;;;;;;5093803;28;20028;-72
2022/05/20 07:11:15;;;;;;;23.60;17.90;;;16.30;99.90;;;;;;5095206;28;20092;-76
2022/05/20 07:13:41;;;;;;;23.48;15.90;;;16.30;99.90;;;;;;5095661;28;20475;-72
2022/05/20 07:16:07;;;;;;;20.90;15.10;;;16.30;99.90;;;;;;5094420;28;20114;-72
2022/05/20 07:18:34;;;;;;;18.55;16.13;;;16.20;99.90;;;;;;5100258;28;20476;-74
2022/05/20 07:21:00;;;;;;;19.65;17.00;;;16.30;99.90;;;;;;5096884;28;20024;-73
2022/05/20 07:23:28;;;;;;;20.83;17.08;;;16.40;99.90;;;;;;5094616;28;20031;-77
2022/05/20 07:25:57;;;;;;;21.77;16.75;;;16.50;99.90;;;;;;5095388;28;20051;-75
2022/05/20 07:28:23;;;;;;;18.60;15.57;;;16.60;99.90;;;;;;5095375;28;20047;-74
2022/05/20 07:30:49;;;;;;;17.75;14.73;;;16.60;99.90;;;;;;5094203;28;20044;-72
2022/05/20 07:33:15;;;;;;;18.77;14.02;;;16.70;99.90;;;;;;5095269;28;20118;-73
2022/05/20 07:35:41;;;;;;;13.10;11.13;;;16.80;99.90;;;;;;5095216;28;20444;-73
2022/05/20 07:38:07;;;;;;;13.68;11.15;;;16.90;99.90;;;;;;5094086;28;20032;-72
2022/05/20 07:40:33;;;;;;;11.75;10.50;;;16.90;99.90;;;;;;5095086;28;20384;-73
2022/05/20 07:43:01;;;;;;;9.27;8.30;;;17.10;99.90;;;;;;5094076;28;20032;-73
2022/05/20 07:45:27;;;;;;;13.82;9.90;;;17.20;99.90;;;;;;5093206;28;20370;-72
2022/05/20 07:47:53;;;;;;;11.48;9.55;;;17.40;99.90;;;;;;5093415;28;20131;-73
2022/05/20 07:50:19;;;;;;;10.98;9.77;;;17.50;99.90;;;;;;5093405;28;20032;-73
2022/05/20 07:55:36;;;;;;;9.07;7.55;;;17.70;99.90;;;;;;5094373;28;20061;-73
2022/05/20 07:58:05;;;;;;;10.23;8.30;;;17.80;99.90;;;;;;5093795;28;20052;-73
2022/05/20 08:00:31;;;;;;;8.85;7.70;;;18.00;99.90;;;;;;5093668;28;20464;-77
2022/05/20 08:03:00;;;;;;;9.82;8.60;;;18.10;99.90;;;;;;5094290;28;20066;-73
2022/05/20 08:05:26;;;;;;;13.43;8.60;;;18.40;99.90;;;;;;5093964;28;20455;-74
2022/05/20 08:08:00;;;;;;;13.80;10.02;;;18.40;99.90;;;;;;5094509;28;20028;-74
2022/05/20 08:10:29;;;;;;;11.55;10.35;;;18.50;99.90;;;;;;5094553;28;20111;-73
2022/05/20 08:12:56;;;;;;;9.57;8.63;;;18.60;99.90;;;;;;5093594;28;20039;-74
2022/05/20 08:15:22;;;;;;;13.82;8.55;;;18.60;99.90;;;;;;5094477;28;20020;-74
2022/05/20 08:17:48;;;;;;;9.70;7.50;;;18.70;99.90;;;;;;5093890;28;20032;-74
2022/05/20 08:20:25;;;;;;;10.73;8.07;;;18.70;99.90;;;;;;5092965;28;20024;-74
2022/05/20 08:22:53;;;;;;;9.20;8.15;;;18.80;99.90;;;;;;5094176;28;20494;-74
2022/05/20 08:25:19;;;;;;;8.75;7.85;;;18.90;99.90;;;;;;5094516;28;20035;-74
2022/05/20 08:27:44;;;;;;;8.90;6.93;;;19.00;99.90;;;;;;5093652;28;20387;-75
2022/05/20 08:30:20;;;;;;;7.88;7.18;;;18.40;99.90;;;;;;5094049;28;20127;-73
2022/05/20 08:32:46;;;;;;;9.32;7.13;;;19.20;99.90;;;;;;5094248;28;20032;-74
2022/05/20 08:35:12;;;;;;;12.15;7.70;;;19.30;99.90;;;;;;5093503;28;20028;-74
2022/05/20 08:37:44;;;;;;;12.35;7.70;;;19.40;99.90;;;;;;5094208;28;20058;-74
2022/05/20 08:40:34;;;;;;;8.15;6.80;;;19.40;99.90;;;;;;5093084;28;20392;-74
2022/05/20 08:43:01;;;;;;;11.60;8.95;;;19.50;99.90;;;;;;5093643;28;20480;-74
2022/05/20 08:45:29;;;;;;;8.80;7.85;;;19.50;99.90;;;;;;5094006;28;20444;-74
2022/05/20 08:47:55;;;;;;;9.32;7.35;;;19.70;99.90;;;;;;5092904;28;20036;-74
2022/05/20 08:50:35;;;;;;;9.60;7.30;;;19.80;99.90;;;;;;5091526;28;20430;-74
2022/05/20 08:53:01;;;;;;;8.52;7.78;;;19.90;99.90;;;;;;5073141;28;20060;-74
2022/05/20 08:55:27;;;;;;;8.73;7.38;;;19.90;99.90;;;;;;5072822;28;20064;-73
2022/05/20 08:57:58;;;;;;;9.15;6.72;;;20.00;99.90;;;;;;5083116;28;20048;-73
2022/05/20 09:00:24;;;;;;;8.93;8.00;;;20.00;99.90;;;;;;5092198;28;20036;-74
2022/05/20 09:02:50;;;;;;;9.57;8.00;;;20.10;99.90;;;;;;5092135;28;20107;-74
2022/05/20 09:05:20;;;;;;;8.23;7.43;;;20.20;99.90;;;;;;5093571;28;20052;-74
2022/05/20 09:08:00;;;;;;;;;;;20.20;99.90;;;;;;5094084;28;20028;-73
2022/05/20 09:10:38;;;;;;;9.07;8.17;;;20.20;99.90;;;;;;5092793;28;20279;-74
2022/05/20 09:16:20;;;;;;;8.70;7.75;;;20.30;99.90;;;;;;5093056;28;20039;-73
2022/05/20 09:18:49;;;;;;;11.88;8.27;;;20.30;99.90;;;;;;5093385;28;20032;-73
2022/05/20 09:21:33;;;;;;;8.15;7.35;;;20.40;99.90;;;;;;5093050;28;20028;-73
2022/05/20 09:24:05;;;;;;;12.70;7.25;;;20.30;99.90;;;;;;5092661;28;20027;-73
2022/05/20 09:26:36;;;;;;;12.50;7.07;;;20.40;99.90;;;;;;5093188;28;20111;-73
2022/05/20 09:29:09;;;;;;;;;;;20.50;99.90;;;;;;5093667;28;20095;-72
2022/05/20 09:31:49;;;;;;;9.20;8.27;;;20.60;99.90;;;;;;5092311;28;20375;-73
2022/05/20 09:34:26;;;;;;;13.10;7.43;;;20.70;99.90;;;;;;5092992;28;20043;-72
2022/05/20 09:37:00;;;;;;;9.45;7.80;;;20.80;99.90;;;;;;5092185;28;20031;-73
2022/05/20 09:39:41;;;;;;;8.95;7.40;;;20.90;99.90;;;;;;5092743;28;20494;-72
2022/05/20 09:42:28;;;;;;;7.93;6.65;;;21.00;99.90;;;;;;5092665;28;20113;-73
2022/05/20 09:45:00;;;;;;;8.13;7.45;;;21.10;99.90;;;;;;5090645;28;20115;-74
2022/05/20 09:47:32;;;;;;;10.25;7.63;;;21.20;99.90;;;;;;5092042;28;20164;-74
2022/05/20 09:50:03;;;;;;;13.63;8.63;;;21.20;99.90;;;;;;5091732;28;20600;-75
2022/05/20 09:52:50;;;;;;;8.40;7.45;;;21.20;99.90;;;;;;5088715;28;20080;-73
2022/05/20 09:55:27;;;;;;;10.60;7.53;;;21.20;99.90;;;;;;5092527;28;20036;-72
2022/05/20 09:57:56;;;;;;;9.63;8.25;;;21.20;99.90;;;;;;5089885;28;20626;-73
2022/05/20 10:00:32;;;;;;;9.27;8.15;;;21.10;99.90;;;;;;5074303;28;20056;-75
2022/05/20 10:03:27;;;;;;;16.83;8.95;;;21.10;99.90;;;;;;5091519;28;20361;-72
2022/05/20 10:06:07;;;;;;;11.88;8.48;;;21.00;99.90;;;;;;5090885;28;20020;-72
2022/05/20 10:08:38;;;;;;;9.97;8.30;;;21.00;99.90;;;;;;5094940;28;20069;-73
2022/05/20 10:11:27;;;;;;;14.73;9.05;;;21.10;99.90;;;;;;5092904;28;20046;-72
2022/05/20 10:14:00;;;;;;;12.95;8.80;;;21.20;99.90;;;;;;5087763;28;20531;-71
2022/05/20 10:16:43;;;;;;;10.93;8.52;;;21.20;99.90;;;;;;5091333;28;20044;-71
2022/05/20 10:19:37;;;;;;;14.40;9.50;;;21.30;99.90;;;;;;5085476;28;20032;-72
2022/05/20 10:22:15;;;;;;;11.32;9.00;;;21.30;99.90;;;;;;5090449;28;20026;-72
2022/05/20 10:25:05;;;;;;;17.23;8.52;;;21.30;99.90;;;;;;5090655;28;20016;-72
2022/05/20 10:27:36;;;;;;;10.98;8.23;;;21.40;99.90;;;;;;5082498;28;20032;-72
2022/05/20 10:33:09;;;;;;;11.05;8.85;;;21.60;99.90;;;;;;5085861;28;20027;-73
2022/05/20 10:36:08;;;;;;;12.85;9.15;;;21.70;99.90;;;;;;5087155;28;20032;-73
2022/05/20 10:39:00;;;;;;;10.07;7.80;;;21.80;99.90;;;;;;5088152;28;20130;-73
2022/05/20 10:42:00;;;;;;;8.23;7.40;;;21.80;99.90;;;;;;5088597;28;20008;-72
2022/05/20 10:50:24;;;;;;;11.68;8.25;;;22.00;99.90;;;;;;5093730;28;20042;-73
2022/05/20 10:53:05;;;;;;;13.43;8.68;;;21.90;99.90;;;;;;5095481;28;20024;-73
2022/05/20 10:55:42;;;;;;;11.95;7.60;;;21.90;99.90;;;;;;5095087;28;20066;-73
2022/05/20 10:58:34;;;;;;;9.35;6.75;;;21.90;99.90;;;;;;5094082;28;20063;-73
2022/05/20 11:01:15;;;;;;;12.57;8.60;;;22.10;99.90;;;;;;5095085;28;20032;-73
2022/05/20 11:03:51;;;;;;;;;;;22.10;99.90;;;;;;5096372;28;20108;-74
2022/05/20 11:06:17;;;;;;;9.98;8.80;;;22.30;99.90;;;;;;5095763;28;20437;-73
2022/05/20 11:08:52;;;;;;;10.18;9.18;;;22.30;99.90;;;;;;5095155;28;20040;-74
2022/05/20 11:11:43;;;;;;;15.60;9.52;;;22.40;99.90;;;;;;5095700;28;20027;-73
2022/05/20 11:14:31;;;;;;;10.35;9.27;;;22.40;99.90;;;;;;5095195;28;20491;-73
2022/05/20 11:17:05;;;;;;;15.48;9.98;;;22.40;99.90;;;;;;5094607;28;20032;-73
2022/05/20 11:19:40;;;;;;;12.77;8.82;;;22.30;99.90;;;;;;5095705;28;20036;-73
2022/05/20 11:22:37;;;;;;;9.50;8.68;;;22.40;99.90;;;;;;5094556;28;20020;-73
2022/05/20 11:25:42;;;;;;;9.00;8.20;;;22.40;99.90;;;;;;5095040;28;20384;-73
2022/05/20 11:28:16;;;;;;;9.20;8.15;;;22.40;99.90;;;;;;5095082;28;20040;-74
2022/05/20 11:31:07;;;;;;;9.70;8.45;;;22.30;99.90;;;;;;5094682;28;20111;-72
2022/05/20 11:33:44;;;;;;;13.13;8.93;;;22.20;99.90;;;;;;5095301;28;20103;-72
2022/05/20 11:36:18;;;;;;;12.52;8.88;;;22.10;99.90;;;;;;5094476;28;20027;-72
2022/05/20 11:38:53;;;;;;;10.13;8.05;;;21.90;99.90;;;;;;5095323;28;20028;-72
2022/05/20 11:41:31;;;;;;;11.55;8.02;;;21.80;99.90;;;;;;5095351;28;20065;-72
2022/05/20 11:44:51;;;;;;;9.32;7.90;;;21.80;99.90;;;;;;5094108;28;20384;-74
2022/05/20 11:47:42;;;;;;;10.53;6.90;;;21.60;99.90;;;;;;5012947;28;20529;-74
2022/05/20 11:50:39;;;;;;;10.43;6.65;;;21.30;99.90;;;;;;5091199;28;20040;-73
2022/05/20 11:53:27;;;;;;;11.35;7.47;;;21.10;99.90;;;;;;5094738;28;20023;-73
2022/05/20 11:56:06;;;;;;;9.82;7.65;;;20.90;99.90;;;;;;5094165;28;20388;-73
2022/05/20 11:58:34;;;;;;;11.60;6.95;;;20.60;99.90;;;;;;5093868;28;20159;-73
2022/05/20 12:01:01;;;;;;;9.43;6.70;;;20.40;99.90;;;;;;5094465;28;20365;-73
2022/05/20 12:04:06;;;;;;;11.23;7.45;;;20.20;99.90;;;;;;5095195;28;20123;-73
2022/05/20 12:06:22;;;;;;;9.02;7.60;;;20.10;99.90;;;;;;5094029;28;20142;-73
2022/05/20 12:09:01;;;;;;;22.58;11.15;;;19.90;99.90;;;;;;5094418;28;20028;-74
2022/05/20 12:11:36;;;;;;;18.17;9.03;;;19.70;99.90;;;;;;5094002;28;20024;-73
2022/05/20 12:14:09;;;;;;;11.63;10.40;;;19.60;99.90;;;;;;5094434;28;20285;-73
2022/05/20 12:16:57;;;;;;;15.50;9.88;;;19.40;99.90;;;;;;5094578;28;20115;-73
2022/05/20 12:25:36;;;;;;;23.80;13.48;;;19.00;99.90;;;;;;5094447;28;20043;-73
2022/05/20 12:28:20;;;;;;;20.13;12.02;;;18.60;99.90;;;;;;5094305;28;20024;-73
2022/05/20 12:31:11;;;;;;;25.65;13.55;;;18.40;99.90;;;;;;5094417;28;20027;-72
2022/05/20 12:34:00;;;;;;;21.38;12.57;;;18.00;99.90;;;;;;5093466;28;20034;-73
2022/05/20 12:36:28;;;;;;;19.77;14.18;;;17.90;99.90;;;;;;5094360;28;20024;-73
2022/05/20 12:39:09;;;;;;;18.25;13.55;;;17.80;99.90;;;;;;5093870;28;20515;-74
2022/05/20 12:41:48;;;;;;;17.80;13.65;;;17.60;99.90;;;;;;5093537;28;20508;-73
2022/05/20 12:44:16;;;;;;;23.88;15.18;;;17.50;99.90;;;;;;5094241;28;20035;-73
2022/05/20 12:47:06;;;;;;;21.67;15.57;;;17.40;99.90;;;;;;5093494;28;20031;-74
2022/05/20 12:49:38;;;;;;;22.47;16.17;;;17.40;99.90;;;;;;5094089;28;20030;-74
2022/05/20 12:52:11;;;;;;;22.63;16.27;;;17.30;99.90;;;;;;5093689;28;20032;-73
2022/05/20 12:54:48;;;;;;;23.80;17.08;;;17.30;99.90;;;;;;5093075;28;20028;-73
2022/05/20 12:57:18;;;;;;;20.58;16.17;;;17.20;99.90;;;;;;5094332;28;20074;-73
2022/05/20 12:59:49;;;;;;;17.17;14.77;;;17.10;99.90;;;;;;5096809;28;20040;-74
2022/05/20 13:02:18;;;;;;;17.67;15.43;;;16.90;99.90;;;;;;5096414;28;20103;-74
2022/05/20 13:05:08;;;;;;;19.33;16.17;;;16.90;99.90;;;;;;5094242;28;20024;-73
2022/05/20 13:07:37;;;;;;;25.08;17.60;;;16.70;99.90;;;;;;5045382;28;20506;-73
2022/05/20 13:10:22;;;;;;;21.02;16.27;;;16.60;99.90;;;;;;5093138;28;20507;-73
2022/05/20 13:12:54;;;;;;;20.48;17.33;;;16.40;99.90;;;;;;5082322;28;20480;-74
2022/05/20 13:15:20;;;;;;;18.77;15.75;;;16.20;99.90;;;;;;5090922;28;20024;-73
2022/05/20 13:18:05;;;;;;;23.50;18.27;;;16.30;99.90;;;;;;5092503;28;20036;-73
2022/05/20 13:20:35;;;;;;;20.02;17.92;;;16.20;99.90;;;;;;5084703;28;20036;-73
2022/05/20 13:23:04;;;;;;;24.52;18.85;;;16.30;99.90;;;;;;5081669;28;20035;-73
2022/05/20 13:25:30;;;;;;;27.60;19.27;;;16.30;99.90;;;;;;5090899;28;20055;-74
2022/05/20 13:27:55;;;;;;;23.75;19.23;;;16.30;99.90;;;;;;5091078;28;20013;-77
2022/05/20 13:30:25;;;;;;;27.35;19.05;;;16.40;99.90;;;;;;5090274;28;20024;-75
2022/05/20 13:32:51;;;;;;;24.75;19.40;;;16.40;99.90;;;;;;5086534;28;20429;-75
2022/05/20 13:35:17;;;;;;;25.92;19.10;;;16.40;99.90;;;;;;5091301;28;20121;-74
2022/05/20 13:37:50;;;;;;;29.48;19.15;;;16.30;99.90;;;;;;5090452;28;20066;-75